Bells, TX

12:44 PM CDT on August 22, 2014 (GMT -0500)
Majors | Change Station
CLOSE
Current Station
Airport
Location: Greenville,
Elevation: 535 ft
Nearby Weather Stations

Elev 535 ft 33.07 °N, 96.07 °W | Updated 9 minutes ago

Partly Cloudy
Partly Cloudy
93 °F
Feels Like 95 °F
N
12
Wind Variable Wind from SSW
Gusts 16 mph

Today
High -- | Low -- °F
--% Chance of Precip.
Yesterday
High -- | Low -- °F
Precip. -- in
6:52 AM 8:03 PM
Waning Crescent, 7% visible
Pressure 30.06 in
Visibility 10.0 miles
Clouds
Heat Index 95 °F
Dew Point 64 °F
Humidity 38%
Rainfall 0.00 in
Snow Depth Not available.
UV Not available.
Pollen 8.70 out of 12
Air Quality Not available.
Flu Activity Not available.
METAR KGVT 221735Z AUTO 21010G14KT 10SM 34/18 A3006 RMK AO2

More Conditions Fewer Conditions

Pressure 30.06 in
Visibility 10.0 miles
Clouds
Heat Index 95 °F
Dew Point 64 °F
Humidity 38%
Rainfall 0.00 in
Snow Depth Not available.
UV Not available.
Pollen 8.70 out of 12
Air Quality Not available.
Flu Activity Not available.
METAR KGVT 221735Z AUTO 21010G14KT 10SM 34/18 A3006 RMK AO2

More Conditions Fewer Conditions

10-Day Weather Forecast

Almanac

Astronomy

Aug. 22, 2014 Rise Set
Actual Time 6:52 AM CDT 8:03 PM CDT
Civil Twilight 6:26 AM CDT 8:29 PM CDT
Nautical Twilight 5:56 AM CDT 9:00 PM CDT
Astronomical Twilight 5:24 AM CDT 9:32 PM CDT
Moon 4:19 AM CDT 6:10 PM CDT
Length of Visible Light 14h 02m
Length of Day
13h 10m
Tomorrow will be 1m 55s shorter.
Waning Crescent, 7% of the Moon is Illuminated
Today
Waning Crescent
Aug 25
New
Sep 2
First Quarter
Sep 8
Full
Sep 15
Last Quarter

Today's Extremes

State Highs State Lows

Community

WunderPhotos

Upload Photos

1,746,206 photos uploaded!

WunderBlogs® & News

Nearby

Snow Depth

Station Depth Elevation
No new snow has been reported.

Earthquake Activity

City Distance Mag. Time & Date
Boley, Oklahoma 121 miles 3.4 9:50 PM CDT
2014-08-17
Minimum magnitude displayed is 2.5.

Coastal Water Temperatures

Place Temperature
No Stations Reporting

Nearby Weather Stations